Time;durP1;ratioP1;P1;durP2;ratioP2;P2;SDS_P1;SDS_P2;PMS_P1;PMS_P2;Temp;Humidity;BMP_temperature;BMP_pressure;BME280_temperature;BME280_humidity;BME280_pressure;Samples;Min_cycle;Max_cycle;Signal;HPM_P1;HPM_P2
2021/03/18 00:01:11;;;;;;;15.77;10.50;;;;;;;0.67;82.06;99660.31;5001151;23;20239;-80
2021/03/18 00:04:37;;;;;;;16.13;10.50;;;;;;;0.77;81.44;99675.06;4999493;28;20215;-79
2021/03/18 00:19:51;;;;;;;18.00;11.17;;;;;;;0.95;80.15;99692.63;4987783;23;20239;-79
2021/03/18 00:23:47;;;;;;;16.07;10.93;;;;;;;0.88;80.22;99692.44;5000738;23;20276;-79
2021/03/18 00:28:05;;;;;;;16.17;11.03;;;;;;;0.93;79.28;99697.25;4920631;29;20262;-79
2021/03/18 00:32:34;;;;;;;14.67;11.23;;;;;;;0.87;79.77;99688.97;4922141;29;20268;-79
2021/03/18 00:35:49;;;;;;;15.53;10.73;;;;;;;0.75;79.40;99670.91;4920106;23;20249;-80
2021/03/18 00:39:16;;;;;;;14.53;10.27;;;;;;;0.86;79.33;99695.22;4938478;29;20198;-80
2021/03/18 00:42:40;;;;;;;15.93;10.30;;;;;;;0.85;79.55;99683.00;4957446;23;20238;-80
2021/03/18 00:45:57;;;;;;;15.83;10.63;;;;;;;0.88;80.12;99688.00;4990302;28;20224;-79
2021/03/18 00:49:33;;;;;;;18.07;11.40;;;;;;;0.92;79.89;99691.13;4943630;28;20228;-79
2021/03/18 00:52:46;;;;;;;18.90;11.17;;;;;;;0.99;79.20;99686.03;4916489;29;20231;-80
2021/03/18 00:56:15;;;;;;;14.63;10.60;;;;;;;0.92;79.23;99672.66;4919316;29;20226;-79
2021/03/18 01:00:08;;;;;;;13.43;9.50;;;;;;;1.13;78.59;99673.09;5009984;23;20401;-80
2021/03/18 01:04:05;;;;;;;16.67;10.73;;;;;;;1.09;78.82;99679.69;4978029;23;20268;-80
2021/03/18 01:08:11;;;;;;;14.20;10.03;;;;;;;1.14;78.09;99676.56;5111663;23;20395;-79
2021/03/18 01:15:26;;;;;;;15.60;10.47;;;;;;;1.15;78.15;99673.78;4989582;23;20223;-80
2021/03/18 01:19:55;;;;;;;15.80;10.60;;;;;;;1.20;77.16;99662.75;5242909;23;20270;-81
2021/03/18 01:24:16;;;;;;;15.13;10.20;;;;;;;1.18;78.40;99665.53;5007333;23;20231;-80
2021/03/18 01:28:30;;;;;;;13.63;9.40;;;;;;;1.23;77.27;99660.59;5021602;23;20212;-80
2021/03/18 01:31:55;;;;;;;14.10;10.13;;;;;;;1.14;77.97;99648.38;5005970;23;20308;-80
2021/03/18 01:35:29;;;;;;;13.40;9.77;;;;;;;1.07;77.35;99620.97;4991779;23;20296;-80
2021/03/18 01:39:45;;;;;;;13.83;10.13;;;;;;;1.23;77.57;99663.25;4959741;23;20220;-79
2021/03/18 01:51:16;;;;;;;13.80;10.33;;;;;;;1.25;77.18;99648.09;4921790;29;20191;-81
2021/03/18 01:55:22;;;;;;;13.37;10.30;;;;;;;1.01;76.88;99618.13;4996078;23;20232;-80
2021/03/18 01:59:05;;;;;;;12.80;9.43;;;;;;;1.26;77.61;99659.47;5019377;23;20250;-82
2021/03/18 02:07:07;;;;;;;14.57;9.43;;;;;;;1.22;76.70;99656.31;4994866;23;20238;-80
2021/03/18 02:10:51;;;;;;;13.50;9.33;;;;;;;1.21;76.82;99652.00;5195565;23;20246;-79
2021/03/18 02:14:38;;;;;;;14.57;9.80;;;;;;;1.21;75.72;99654.66;4999307;28;20212;-79
2021/03/18 02:18:29;;;;;;;14.17;9.57;;;;;;;1.18;76.68;99652.34;4986299;23;20208;-80
2021/03/18 02:22:06;;;;;;;15.30;10.67;;;;;;;1.27;76.00;99661.94;5013563;23;20283;-79
2021/03/18 02:25:35;;;;;;;16.10;9.70;;;;;;;1.21;76.44;99656.47;4977442;23;20263;-79
2021/03/18 02:29:42;;;;;;;14.90;9.93;;;;;;;1.13;76.02;99667.81;5000546;23;20263;-77
2021/03/18 02:33:45;;;;;;;12.70;9.37;;;;;;;1.16;75.86;99669.31;4978604;23;20290;-80
2021/03/18 02:42:17;;;;;;;14.67;9.33;;;;;;;1.10;76.03;99670.78;5064083;23;20204;-80
2021/03/18 02:46:07;;;;;;;13.83;9.53;;;;;;;1.09;76.28;99666.47;5025590;23;20271;-79
2021/03/18 02:50:11;;;;;;;14.77;10.50;;;;;;;1.07;76.28;99675.56;5001921;23;20235;-80
2021/03/18 02:53:56;;;;;;;16.63;10.33;;;;;;;1.08;76.05;99669.25;4985882;23;20281;-79
2021/03/18 02:57:16;;;;;;;14.90;9.77;;;;;;;1.14;75.61;99680.03;4975585;23;20231;-80
2021/03/18 03:01:33;;;;;;;14.07;10.30;;;;;;;1.10;75.71;99676.06;4988108;23;20231;-81
2021/03/18 03:05:31;;;;;;;12.67;9.47;;;;;;;1.07;76.58;99673.75;4974701;23;20231;-79
2021/03/18 03:09:49;;;;;;;14.47;9.73;;;;;;;0.84;75.76;99635.72;4983401;23;20232;-80
2021/03/18 03:14:27;;;;;;;14.83;10.30;;;;;;;1.02;76.42;99681.31;5091624;23;20215;-79
2021/03/18 03:18:37;;;;;;;14.63;10.07;;;;;;;1.02;75.85;99667.28;5083612;23;20224;-79
2021/03/18 03:22:50;;;;;;;14.17;10.07;;;;;;;0.83;76.07;99642.78;5085945;23;20224;-80
2021/03/18 03:26:49;;;;;;;16.13;10.30;;;;;;;0.99;76.02;99673.69;4419851;27;19545879;-80
2021/03/18 03:30:28;;;;;;;15.80;10.80;;;;;;;1.00;76.48;99674.50;5094702;28;20240;-80
2021/03/18 03:37:40;;;;;;;15.33;10.73;;;;;;;0.95;75.92;99674.16;5030754;28;20218;-81
2021/03/18 03:41:01;;;;;;;15.17;10.87;;;;;;;0.92;76.10;99685.88;5238741;22;20211;-81
2021/03/18 03:45:19;;;;;;;15.97;10.07;;;;;;;0.88;76.69;99681.88;5199210;22;20256;-80
2021/03/18 03:49:22;;;;;;;15.33;10.53;;;;;;;0.69;76.19;99653.09;5259500;23;20214;-80
2021/03/18 03:53:00;;;;;;;14.67;10.83;;;;;;;0.81;75.97;99684.31;5262948;22;20192;-79
2021/03/18 03:56:37;;;;;;;15.00;10.87;;;;;;;0.82;76.03;99685.97;5102750;22;20232;-80
2021/03/18 04:00:32;;;;;;;15.67;11.17;;;;;;;0.80;76.46;99687.91;5522260;22;20284;-79
2021/03/18 04:04:32;;;;;;;17.27;11.10;;;;;;;0.81;76.52;99689.59;5081022;22;20205;-81
2021/03/18 04:07:55;;;;;;;16.13;11.20;;;;;;;0.61;76.15;99653.03;5098628;22;20232;-80
2021/03/18 04:11:53;;;;;;;19.67;12.27;;;;;;;0.76;76.38;99677.84;5302613;22;20232;-79
2021/03/18 04:16:04;;;;;;;16.97;11.23;;;;;;;0.77;76.59;99690.88;5092583;28;20186;-79
2021/03/18 04:19:46;;;;;;;19.40;13.20;;;;;;;0.71;76.09;99678.31;5112058;28;20433;-79
2021/03/18 04:23:56;;;;;;;16.97;11.80;;;;;;;0.79;76.36;99690.75;5290711;22;20232;-80
2021/03/18 04:27:50;;;;;;;16.97;12.10;;;;;;;0.79;76.49;99694.16;5150852;22;20199;-80
2021/03/18 04:31:23;;;;;;;15.27;11.43;;;;;;;0.57;76.30;99670.97;5154124;28;20196;-80
2021/03/18 04:35:28;;;;;;;17.40;10.93;;;;;;;0.31;75.98;99628.78;5111383;22;20219;-80
2021/03/18 04:38:58;;;;;;;17.33;11.27;;;;;;;0.80;75.50;99700.28;5136858;28;20234;-80
2021/03/18 04:42:15;;;;;;;18.40;12.00;;;;;;;0.74;75.72;99691.22;5107118;28;20223;-80
2021/03/18 04:46:15;;;;;;;17.80;11.00;;;;;;;0.78;75.14;99679.34;5128000;28;20424;-79
2021/03/18 04:49:39;;;;;;;18.23;12.00;;;;;;;0.89;74.59;99699.34;5125462;22;20232;-80
2021/03/18 04:53:44;;;;;;;16.53;12.13;;;;;;;0.89;74.91;99704.63;5146907;22;20207;-79
2021/03/18 05:01:30;;;;;;;18.83;11.97;;;;;;;0.63;74.76;99665.09;5126774;22;20232;-79
2021/03/18 05:06:09;;;;;;;17.10;11.10;;;;;;;0.87;75.38;99691.59;5061375;28;20201;-80
2021/03/18 05:09:50;;;;;;;15.70;11.63;;;;;;;0.82;75.46;99696.53;5058757;28;20190;-81
2021/03/18 05:13:00;;;;;;;16.33;12.17;;;;;;;0.81;75.25;99700.13;5055207;28;20198;-79
2021/03/18 05:17:02;;;;;;;18.97;12.03;;;;;;;0.85;74.96;99701.47;5184092;22;20225;-80
2021/03/18 05:20:21;;;;;;;16.77;12.33;;;;;;;0.81;75.41;99696.66;5024825;28;20242;-80
2021/03/18 05:24:26;;;;;;;19.77;12.70;;;;;;;0.87;75.37;99694.25;5029453;22;20280;-80
2021/03/18 05:28:17;;;;;;;16.77;12.27;;;;;;;0.91;75.13;99696.56;5097999;22;20285;-80
2021/03/18 05:31:58;;;;;;;19.33;12.27;;;;;;;0.83;75.40;99674.44;5287380;22;20224;-80
2021/03/18 05:40:28;;;;;;;19.20;12.07;;;;;;;1.21;74.07;99696.88;5231307;22;20243;-80
2021/03/18 05:44:18;;;;;;;16.20;11.77;;;;;;;1.46;73.43;99699.63;5213708;22;20236;-81
2021/03/18 05:48:33;;;;;;;16.00;11.93;;;;;;;1.68;72.06;99704.34;5093119;22;20254;-81
2021/03/18 05:52:59;;;;;;;21.93;12.83;;;;;;;1.81;72.11;99709.16;5090973;23;20220;-81
2021/03/18 05:56:47;;;;;;;16.37;11.93;;;;;;;2.02;70.09;99707.69;5019573;28;20258;-82
2021/03/18 06:05:03;;;;;;;15.70;11.00;;;;;;;2.14;69.62;99709.03;5095657;23;20236;-80
2021/03/18 06:08:39;;;;;;;15.80;11.40;;;;;;;1.88;69.11;99655.47;5109893;23;20233;-80
2021/03/18 06:12:32;;;;;;;15.97;10.97;;;;;;;2.53;66.63;99716.31;5041639;28;20200;-79
2021/03/18 06:20:57;;;;;;;15.43;11.67;;;;;;;3.34;65.10;99711.69;5058371;23;20240;-81
2021/03/18 06:24:39;;;;;;;16.43;11.37;;;;;;;3.57;64.36;99713.56;5687193;23;20519;-79
2021/03/18 06:32:50;;;;;;;15.87;11.40;;;;;;;3.17;65.01;99710.09;5137718;22;20212;-80
2021/03/18 06:36:38;;;;;;;17.23;12.37;;;;;;;3.52;65.11;99725.50;5088332;22;20231;-79
2021/03/18 06:43:25;;;;;;;16.57;12.10;;;;;;;4.10;62.76;99721.56;5099641;22;20272;-79
2021/03/18 06:47:41;;;;;;;15.57;11.63;;;;;;;4.30;61.85;99716.59;5073803;28;20228;-81
2021/03/18 06:51:54;;;;;;;14.93;11.77;;;;;;;4.13;60.16;99644.31;5191725;22;20243;31
2021/03/18 06:55:45;;;;;;;15.63;12.07;;;;;;;4.55;61.17;99719.91;5031898;28;20625;-80
2021/03/18 06:59:36;;;;;;;19.50;12.77;;;;;;;4.46;61.95;99718.31;5018417;28;20199;-80
2021/03/18 07:03:30;;;;;;;15.33;11.33;;;;;;;4.12;61.62;99724.03;5088061;22;20235;-80
2021/03/18 07:07:30;;;;;;;15.87;12.23;;;;;;;3.76;63.17;99716.63;5058730;28;20198;-81
2021/03/18 07:11:14;;;;;;;16.20;11.27;;;;;;;3.62;62.62;99701.47;5085117;28;20225;-80
2021/03/18 07:19:11;;;;;;;14.63;10.97;;;;;;;3.88;62.27;99717.88;5091993;28;20224;-80
2021/03/18 07:30:35;;;;;;;14.43;10.67;;;;;;;3.93;61.80;99710.22;5469634;22;20238;31
2021/03/18 07:34:31;;;;;;;12.90;9.63;;;;;;;4.06;59.19;99714.94;5326739;22;20567;-80
2021/03/18 07:38:01;;;;;;;13.87;10.47;;;;;;;4.18;60.52;99707.41;5138204;22;20247;-81
2021/03/18 07:41:25;;;;;;;14.73;11.00;;;;;;;4.31;58.56;99697.88;5044442;22;20220;-80
2021/03/18 07:44:44;;;;;;;13.37;10.47;;;;;;;4.54;58.85;99705.81;5058383;22;20204;-80
2021/03/18 07:47:50;;;;;;;13.80;10.23;;;;;;;4.38;58.95;99684.72;5151510;22;20225;-81
2021/03/18 07:51:00;;;;;;;15.10;11.40;;;;;;;4.47;59.91;99726.09;5053082;28;20174;-81
2021/03/18 07:55:00;;;;;;;14.63;11.37;;;;;;;4.31;59.85;99715.59;5076374;22;20261;-81
2021/03/18 07:58:35;;;;;;;15.30;11.67;;;;;;;4.40;59.08;99701.28;5059718;22;20304;31
2021/03/18 08:01:45;;;;;;;15.60;11.43;;;;;;;4.44;59.76;99706.03;5057133;22;20227;-81
2021/03/18 08:05:23;;;;;;;16.80;11.33;;;;;;;4.53;57.98;99695.34;5031088;28;20221;-80
2021/03/18 08:08:40;;;;;;;14.40;10.90;;;;;;;5.01;58.53;99707.34;5042322;28;20269;-81
2021/03/18 08:11:47;;;;;;;13.83;11.00;;;;;;;5.42;57.40;99710.38;5053374;28;20212;-81
2021/03/18 08:14:28;;;;;;;14.73;11.67;;;;;;;5.48;57.70;99699.00;5030966;28;20240;-80
2021/03/18 08:17:29;;;;;;;16.17;11.57;;;;;;;5.84;56.74;99705.16;5049488;28;20256;-81
2021/03/18 08:20:47;;;;;;;13.33;11.43;;;;;;;5.68;56.87;99703.56;5039636;22;20355;-81
2021/03/18 08:23:39;;;;;;;15.13;11.67;;;;;;;5.63;56.61;99702.47;5206429;23;20256;-81
2021/03/18 08:26:56;;;;;;;12.77;10.07;;;;;;;5.30;56.90;99665.69;5145657;22;20644;-80
2021/03/18 08:30:48;;;;;;;12.77;10.60;;;;;;;5.18;58.47;99700.88;5028907;28;20226;-81
2021/03/18 08:34:03;;;;;;;13.47;11.23;;;;;;;5.12;57.77;99667.91;5066085;22;20236;-80
2021/03/18 08:38:08;;;;;;;12.23;9.60;;;;;;;5.57;57.15;99671.31;5029475;28;20253;-81
2021/03/18 08:41:44;;;;;;;12.30;10.00;;;;;;;5.67;57.21;99679.81;5039109;28;20245;-81
2021/03/18 08:45:49;;;;;;;12.30;9.47;;;;;;;5.52;57.95;99692.31;5016302;28;20229;-81
2021/03/18 08:48:47;;;;;;;11.20;8.80;;;;;;;5.53;57.04;99688.66;5048548;28;20226;-81
2021/03/18 08:51:57;;;;;;;10.63;8.20;;;;;;;5.12;56.70;99688.31;5062215;22;20237;-81
2021/03/18 08:54:56;;;;;;;10.43;9.07;;;;;;;5.51;56.57;99682.69;5050652;28;20261;-81
2021/03/18 08:58:26;;;;;;;10.20;8.03;;;;;;;5.59;55.04;99686.09;5023312;28;20178;-81
2021/03/18 09:01:37;;;;;;;10.57;7.93;;;;;;;5.70;54.17;99647.53;5147202;22;20222;-80
2021/03/18 09:05:22;;;;;;;9.63;7.87;;;;;;;5.99;53.07;99654.63;5032940;23;20521;-81
2021/03/18 09:09:11;;;;;;;8.83;7.60;;;;;;;5.85;54.28;99680.25;5038424;23;20233;-81
2021/03/18 09:12:25;;;;;;;8.27;6.43;;;;;;;5.35;56.45;99674.94;5020288;28;20396;-82
2021/03/18 09:15:51;;;;;;;8.77;6.57;;;;;;;4.97;56.67;99684.81;5129425;22;20222;-81
2021/03/18 09:18:43;;;;;;;9.30;6.20;;;;;;;4.50;58.65;99680.63;4978750;28;20667;-80
2021/03/18 09:22:17;;;;;;;7.43;6.40;;;;;;;4.25;58.36;99681.81;4991647;28;20656;-81
2021/03/18 09:25:01;;;;;;;8.13;6.40;;;;;;;4.32;58.42;99670.34;4984092;23;20242;-81
2021/03/18 09:29:06;;;;;;;8.87;6.60;;;;;;;4.67;57.29;99674.16;4962985;28;20232;-81
2021/03/18 09:32:20;;;;;;;8.07;7.03;;;;;;;4.74;57.55;99632.63;4985281;28;20220;-81
2021/03/18 09:36:01;;;;;;;7.63;6.50;;;;;;;5.31;56.13;99667.34;4979890;28;20232;-81
2021/03/18 09:39:29;;;;;;;8.13;6.93;;;;;;;5.56;55.74;99657.19;4974543;29;20604;-81
2021/03/18 09:43:02;;;;;;;12.20;7.20;;;;;;;5.88;53.32;99650.63;5021734;22;20222;-81
2021/03/18 09:46:31;;;;;;;7.50;6.30;;;;;;;6.88;50.40;99637.97;5128234;22;20281;-81
2021/03/18 09:53:27;;;;;;;6.90;5.90;;;;;;;5.88;52.02;99640.00;5039479;23;20235;-80
2021/03/18 09:56:53;;;;;;;8.13;6.03;;;;;;;5.84;51.24;99621.91;5054166;23;20234;-81
2021/03/18 09:59:50;;;;;;;6.63;5.93;;;;;;;5.87;50.46;99622.41;5060756;22;20232;-80
2021/03/18 10:02:54;;;;;;;7.40;6.07;;;;;;;5.56;50.60;99635.13;5045187;28;20224;-80
2021/03/18 10:06:15;;;;;;;7.57;6.37;;;;;;;4.67;51.27;99585.75;5136260;22;20231;-80
2021/03/18 10:09:35;;;;;;;6.80;6.07;;;;;;;5.56;51.87;99638.59;5025122;23;20241;-80
2021/03/18 10:12:31;;;;;;;7.00;6.30;;;;;;;6.28;49.41;99601.31;5134898;23;20257;-81
2021/03/18 10:15:37;;;;;;;7.73;6.70;;;;;;;6.86;49.00;99583.28;5029828;23;20233;-80
2021/03/18 10:18:58;;;;;;;6.20;5.60;;;;;;;6.72;49.06;99597.53;5011676;28;20257;-81
2021/03/18 10:22:20;;;;;;;6.83;5.83;;;;;;;6.43;49.93;99626.00;4995596;28;20251;-80
2021/03/18 10:25:34;;;;;;;6.80;6.10;;;;;;;6.92;49.50;99585.13;5143206;22;20210;-81
2021/03/18 10:28:43;;;;;;;7.20;5.90;;;;;;;7.82;47.16;99608.84;5004495;22;20296;-81
2021/03/18 10:31:57;;;;;;;6.40;5.80;;;;;;;7.94;46.09;99599.19;5009146;22;20549;-81
2021/03/18 10:35:40;;;;;;;6.77;5.90;;;;;;;7.43;45.25;99610.38;5072172;22;20234;-81
2021/03/18 10:42:49;;;;;;;7.00;6.30;;;;;;;7.02;46.71;99609.56;5119813;22;20249;-81
2021/03/18 10:46:29;;;;;;;6.90;5.43;;;;;;;6.37;48.89;99599.31;5057663;23;20298;-80
2021/03/18 10:49:47;;;;;;;6.87;6.03;;;;;;;6.57;48.69;99609.09;5064617;23;20234;-81
2021/03/18 10:53:27;;;;;;;6.10;5.50;;;;;;;6.29;50.49;99597.63;5070837;23;20225;-79
2021/03/18 10:56:36;;;;;;;6.00;5.20;;;;;;;6.41;53.40;99595.25;5121527;22;20275;-80
2021/03/18 11:00:10;;;;;;;6.70;6.00;;;;;;;6.03;56.01;99614.19;5064225;22;20260;-81
2021/03/18 11:03:19;;;;;;;7.17;6.03;;;;;;;6.08;56.02;99614.44;5051573;28;20200;-81
2021/03/18 11:06:01;;;;;;;7.97;6.37;;;;;;;6.41;53.94;99597.91;5052283;23;20227;-79
2021/03/18 11:09:30;;;;;;;7.67;6.53;;;;;;;6.80;53.78;99606.19;5048882;22;20223;-81
2021/03/18 11:12:40;;;;;;;7.93;6.57;;;;;;;6.42;53.10;99543.69;5097281;22;20245;-81
2021/03/18 11:16:23;;;;;;;7.80;6.30;;;;;;;7.33;50.94;99595.75;5194489;22;20222;-81
2021/03/18 11:24:02;;;;;;;6.90;6.20;;;;;;;7.22;47.86;99581.19;5064291;22;20212;-81
2021/03/18 11:27:14;;;;;;;8.27;6.50;;;;;;;6.74;48.33;99588.31;5024241;22;20327;-79
2021/03/18 11:31:00;;;;;;;8.87;6.77;;;;;;;6.58;49.34;99572.63;5069336;28;20209;-81
2021/03/18 11:35:54;;;;;;;6.77;5.97;;;;;;;7.01;47.13;99533.34;5074715;22;20308;-80
2021/03/18 11:39:16;;;;;;;5.43;4.70;;;;;;;7.75;42.12;99538.66;5085294;22;20223;-81
2021/03/18 11:42:26;;;;;;;4.93;4.43;;;;;;;7.93;39.97;99521.00;5116759;22;20225;-81
2021/03/18 11:45:49;;;;;;;5.57;4.00;;;;;;;7.55;36.70;99557.31;5107262;22;20246;-81
2021/03/18 11:53:17;;;;;;;4.43;4.03;;;;;;;7.18;39.75;99539.97;5050497;28;20214;-80
2021/03/18 11:56:36;;;;;;;4.90;3.67;;;;;;;6.99;39.06;99551.38;5038760;28;20248;-79
2021/03/18 11:59:25;;;;;;;5.03;3.83;;;;;;;7.26;38.33;99526.47;5034982;28;20226;-80
2021/03/18 12:02:36;;;;;;;5.53;4.10;;;;;;;7.17;38.33;99537.50;5034415;28;20210;-80
2021/03/18 12:05:42;;;;;;;5.47;4.50;;;;;;;7.41;38.10;99534.28;5050670;28;20199;-80
2021/03/18 12:09:12;;;;;;;6.63;4.20;;;;;;;6.86;40.07;99540.66;4950205;29;20242;-81
2021/03/18 12:12:50;;;;;;;4.30;3.63;;;;;;;6.38;38.93;99529.13;4955807;28;20216;-80
2021/03/18 12:16:38;;;;;;;4.63;3.80;;;;;;;7.58;37.69;99529.41;5074901;22;20233;-80
2021/03/18 12:23:38;;;;;;;4.73;3.47;;;;;;;7.21;36.10;99496.94;5085969;22;20237;-80
2021/03/18 12:26:52;;;;;;;4.03;3.27;;;;;;;7.33;35.37;99521.97;5085319;22;20246;-81
2021/03/18 12:30:33;;;;;;;3.20;2.90;;;;;;;7.09;36.25;99522.53;5073664;22;20263;-79
2021/03/18 12:33:48;;;;;;;3.00;2.70;;;;;;;7.46;36.59;99507.88;5054068;28;20311;-84
2021/03/18 12:36:35;;;;;;;2.90;2.60;;;;;;;6.33;37.39;99500.44;5096248;28;20232;-82
2021/03/18 12:39:16;;;;;;;3.93;3.07;;;;;;;6.16;37.31;99467.97;5085127;28;20284;-83
2021/03/18 12:41:58;;;;;;;3.30;2.97;;;;;;;6.43;35.65;99498.25;5049260;28;20233;-82
2021/03/18 12:44:36;;;;;;;3.47;2.70;;;;;;;6.64;36.20;99506.13;5054170;28;20225;-82
2021/03/18 12:47:14;;;;;;;3.50;3.00;;;;;;;6.88;34.43;99496.81;5054647;28;20209;-81
2021/03/18 12:49:53;;;;;;;4.50;3.37;;;;;;;7.25;34.92;99506.16;5052175;28;20297;-81
2021/03/18 12:52:27;;;;;;;5.60;3.20;;;;;;;7.28;34.35;99478.31;5052441;28;20229;-82
2021/03/18 12:55:09;;;;;;;3.97;3.27;;;;;;;7.97;34.12;99481.44;5073530;28;20231;-82
2021/03/18 12:58:01;;;;;;;4.30;3.50;;;;;;;8.24;33.08;99499.06;5049886;28;20320;-82
2021/03/18 13:00:42;;;;;;;3.40;2.73;;;;;;;8.12;32.10;99483.88;5033000;28;20226;-82
2021/03/18 13:03:27;;;;;;;5.00;2.73;;;;;;;7.53;33.99;99476.69;5058584;28;20205;-82
2021/03/18 13:06:30;;;;;;;3.67;3.00;;;;;;;7.14;35.55;99488.09;5093983;28;20292;-81
2021/03/18 13:09:26;;;;;;;3.67;2.70;;;;;;;7.33;34.39;99507.81;5067400;28;20224;-82
2021/03/18 13:12:20;;;;;;;3.03;2.70;;;;;;;6.85;35.31;99486.56;5084092;28;20224;-81
2021/03/18 13:15:24;;;;;;;4.73;2.93;;;;;;;7.32;34.75;99492.88;5088583;28;20278;-81
2021/03/18 13:18:08;;;;;;;4.47;3.20;;;;;;;7.23;34.75;99494.88;5093310;28;20288;-81
2021/03/18 13:21:14;;;;;;;3.43;2.93;;;;;;;7.40;34.90;99482.84;5072401;28;20228;-80
2021/03/18 13:24:15;;;;;;;5.87;3.57;;;;;;;6.92;34.52;99447.47;5080958;23;20217;-81
2021/03/18 13:27:16;;;;;;;4.27;2.83;;;;;;;7.55;35.31;99479.16;5087058;28;20619;-81
2021/03/18 13:30:25;;;;;;;5.17;2.90;;;;;;;7.68;34.84;99479.16;5072618;28;20230;-82
2021/03/18 13:33:19;;;;;;;5.13;2.73;;;;;;;8.23;33.73;99481.38;5084543;28;20625;-82
2021/03/18 13:35:58;;;;;;;3.00;2.70;;;;;;;7.81;34.24;99466.66;5077659;28;20225;-82
2021/03/18 13:38:37;;;;;;;5.27;2.73;;;;;;;7.63;33.94;99462.97;5074472;28;20214;-83
2021/03/18 13:41:18;;;;;;;5.23;3.03;;;;;;;6.99;34.27;99461.63;5074369;28;20236;-81
2021/03/18 13:43:55;;;;;;;3.40;3.00;;;;;;;6.87;35.97;99463.22;5075612;28;20239;-81
2021/03/18 13:46:23;;;;;;;2.97;2.63;;;;;;;6.62;37.40;99470.09;5057474;28;20300;-81
2021/03/18 13:49:08;;;;;;;6.23;2.90;;;;;;;6.45;36.46;99448.28;5070442;28;20194;-81
2021/03/18 13:52:04;;;;;;;5.97;3.00;;;;;;;6.49;37.35;99452.19;5158852;23;20233;-82
2021/03/18 13:55:16;;;;;;;5.57;3.37;;;;;;;6.14;38.10;99471.84;5080620;28;20196;-82
2021/03/18 13:58:29;;;;;;;3.60;3.00;;;;;;;5.65;37.42;99467.38;5081406;28;20221;-82
2021/03/18 14:01:25;;;;;;;3.40;3.10;;;;;;;5.52;37.79;99459.28;5050300;28;20241;-82
2021/03/18 14:04:34;;;;;;;3.13;2.67;;;;;;;6.35;36.48;99463.78;5060670;28;20252;-81
2021/03/18 14:07:51;;;;;;;2.67;2.47;;;;;;;7.18;34.79;99464.53;5084087;28;20231;-81
2021/03/18 14:11:12;;;;;;;3.07;2.63;;;;;;;7.77;32.46;99449.44;5073316;28;20217;-80
2021/03/18 14:14:23;;;;;;;5.10;2.80;;;;;;;7.60;33.75;99410.88;5075675;28;20522;-81
2021/03/18 14:18:16;;;;;;;4.77;3.50;;;;;;;7.33;35.43;99449.19;5086823;22;20228;-81
2021/03/18 14:21:35;;;;;;;4.50;2.80;;;;;;;7.20;36.46;99462.47;5049237;28;20193;-81
2021/03/18 14:25:18;;;;;;;5.30;3.10;;;;;;;6.72;37.64;99443.09;5075844;28;20181;-81
2021/03/18 14:28:37;;;;;;;4.30;3.50;;;;;;;6.64;38.50;99446.75;5074160;22;20237;-81
2021/03/18 14:32:00;;;;;;;5.73;3.90;;;;;;;5.81;41.38;99450.31;5054999;28;20211;-81
2021/03/18 14:35:19;;;;;;;4.80;4.27;;;;;;;5.09;42.36;99389.41;5073301;22;20262;-83
2021/03/18 14:38:58;;;;;;;4.50;3.70;;;;;;;5.88;43.10;99437.91;5358931;22;20218;-81
2021/03/18 14:42:38;;;;;;;6.07;3.70;;;;;;;5.63;44.03;99428.72;5069174;28;20208;-80
2021/03/18 14:45:52;;;;;;;5.63;3.70;;;;;;;5.52;44.92;99431.88;5046614;22;20217;-81
2021/03/18 14:49:21;;;;;;;4.33;3.40;;;;;;;5.45;44.55;99429.19;5050029;28;20193;-80
2021/03/18 14:53:26;;;;;;;4.80;4.20;;;;;;;4.97;47.53;99421.97;5043117;28;20225;-80
2021/03/18 14:56:46;;;;;;;5.07;4.10;;;;;;;5.15;47.21;99417.03;5149558;22;20225;-81
2021/03/18 15:00:26;;;;;;;5.13;4.10;;;;;;;5.26;46.80;99432.50;5276235;22;20242;-81
2021/03/18 15:03:24;;;;;;;4.70;4.20;;;;;;;5.01;46.76;99409.97;5053342;28;20212;-80
2021/03/18 15:06:46;;;;;;;5.90;4.00;;;;;;;5.02;46.72;99441.66;5040213;28;20206;-80
2021/03/18 15:09:55;;;;;;;5.23;3.77;;;;;;;4.92;46.28;99449.09;5030936;22;20250;-81
2021/03/18 15:14:05;;;;;;;4.63;3.60;;;;;;;4.85;47.30;99440.25;5254892;22;20243;-80
2021/03/18 15:17:15;;;;;;;4.63;3.50;;;;;;;4.68;46.80;99436.16;5108231;22;20247;-80
2021/03/18 15:20:46;;;;;;;4.70;3.43;;;;;;;4.57;46.90;99426.84;5140870;22;20296;-81
2021/03/18 15:24:32;;;;;;;4.50;3.67;;;;;;;4.53;47.36;99441.47;5055136;28;20251;-81
2021/03/18 15:28:05;;;;;;;6.53;4.50;;;;;;;4.50;48.21;99435.72;5053080;23;20221;-80
2021/03/18 15:32:18;;;;;;;53.90;36.03;;;;;;;4.60;47.44;99421.16;5102043;22;20247;-80
2021/03/18 15:36:02;;;;;;;10.13;6.40;;;;;;;4.37;47.50;99413.34;5084196;28;20531;-80
2021/03/18 15:40:04;;;;;;;5.80;4.00;;;;;;;4.16;47.62;99380.59;5472472;22;20258;-81
2021/03/18 15:43:38;;;;;;;6.40;4.30;;;;;;;4.64;47.00;99409.16;5051101;22;20230;-80
2021/03/18 15:47:16;;;;;;;4.00;3.60;;;;;;;4.55;47.45;99412.94;5009738;28;20233;-80
2021/03/18 15:50:50;;;;;;;6.83;3.47;;;;;;;4.56;45.99;99413.75;5068226;22;20287;-80
2021/03/18 15:54:27;;;;;;;3.97;3.37;;;;;;;4.49;46.18;99395.09;5101225;22;20296;-80
2021/03/18 15:57:59;;;;;;;4.60;3.40;;;;;;;4.58;46.58;99414.38;4970935;28;20226;-80
2021/03/18 16:02:27;;;;;;;4.30;3.53;;;;;;;4.55;46.52;99399.69;5064869;22;20291;-80
2021/03/18 16:05:40;;;;;;;5.63;3.10;;;;;;;4.48;46.00;99395.31;5099248;22;20216;-80
2021/03/18 16:09:14;;;;;;;4.57;3.50;;;;;;;4.40;45.34;99401.53;5062068;28;20208;-81
2021/03/18 16:12:36;;;;;;;3.63;3.17;;;;;;;4.52;43.80;99392.09;5085574;22;20308;-80
2021/03/18 16:20:39;;;;;;;4.70;3.07;;;;;;;4.16;45.17;99401.81;5062792;22;20228;-80
2021/03/18 16:24:17;;;;;;;3.43;2.87;;;;;;;4.13;43.79;99408.31;5168020;22;20228;-80
2021/03/18 16:27:38;;;;;;;3.40;3.00;;;;;;;3.88;44.35;99378.63;5109728;22;20224;-81
2021/03/18 16:31:04;;;;;;;5.33;3.20;;;;;;;3.97;44.39;99398.72;5083372;28;20244;-81
2021/03/18 16:34:54;;;;;;;3.17;2.87;;;;;;;3.86;45.08;99404.50;5057858;22;20244;-80
2021/03/18 16:38:39;;;;;;;3.93;3.40;;;;;;;3.64;45.38;99376.22;5068091;22;20251;-81
2021/03/18 16:46:45;;;;;;;5.47;3.70;;;;;;;3.52;45.88;99367.91;5284069;22;20235;-81
2021/03/18 16:50:17;;;;;;;4.63;3.90;;;;;;;3.53;46.69;99404.00;5070983;28;20241;-81
2021/03/18 16:54:33;;;;;;;4.30;3.80;;;;;;;3.29;47.43;99401.56;5086730;22;20274;-81
2021/03/18 16:58:05;;;;;;;8.00;4.90;;;;;;;3.02;48.70;99408.22;5057052;28;20216;-81
2021/03/18 17:06:23;;;;;;;54.43;28.03;;;;;;;2.59;50.81;99407.00;5110844;22;20233;-80
2021/03/18 17:10:25;;;;;;;51.20;28.20;;;;;;;2.25;53.24;99406.50;5038751;28;20226;-80
2021/03/18 17:14:40;;;;;;;8.43;7.53;;;;;;;2.07;52.50;99392.72;5079878;28;20217;-80
2021/03/18 17:18:23;;;;;;;6.00;5.40;;;;;;;2.03;53.37;99415.19;5063072;28;20234;-81
2021/03/18 17:22:30;;;;;;;5.03;4.20;;;;;;;1.64;53.73;99367.56;5190066;22;20233;-80
2021/03/18 17:25:47;;;;;;;3.20;2.90;;;;;;;1.33;53.27;99349.00;5066211;22;20221;-81
2021/03/18 17:29:02;;;;;;;4.80;3.37;;;;;;;1.20;53.11;99352.16;5112776;22;20251;-81
2021/03/18 17:36:42;;;;;;;5.40;3.23;;;;;;;1.38;54.31;99378.38;5080863;22;20213;-82
2021/03/18 17:40:25;;;;;;;5.53;3.80;;;;;;;1.50;54.69;99421.06;5215565;22;20473;-81
2021/03/18 17:44:27;;;;;;;5.38;4.50;;;;;;;1.40;54.35;99397.47;5232177;22;20517;-82
2021/03/18 17:47:46;;;;;;;5.67;4.20;;;;;;;1.29;54.89;99387.28;5103930;22;20307;-81
2021/03/18 17:54:55;;;;;;;4.57;3.70;;;;;;;1.16;56.78;99405.44;4966191;28;20239;-80
2021/03/18 17:58:38;;;;;;;3.90;3.43;;;;;;;0.58;57.72;99340.44;5053019;23;20225;-80
2021/03/18 18:03:04;;;;;;;4.03;3.50;;;;;;;0.95;58.85;99418.28;5132849;22;20237;-79
2021/03/18 18:07:02;;;;;;;5.10;3.87;;;;;;;0.81;59.46;99427.66;5037778;28;20275;-80
2021/03/18 18:21:07;;;;;;;6.07;4.37;;;;;;;0.20;61.02;99397.16;1442810;26;20256;-78
2021/03/18 18:24:55;;;;;;;6.27;4.07;;;;;;;0.36;61.49;99426.22;5312876;22;20245;-78
2021/03/18 18:33:14;;;;;;;6.93;4.30;;;;;;;-0.13;61.01;99390.09;5116297;23;20226;-79
2021/03/18 18:37:00;;;;;;;7.43;4.77;;;;;;;-0.30;63.97;99398.91;5167224;22;20222;-79
2021/03/18 18:41:17;;;;;;;6.60;4.50;;;;;;;-0.11;64.94;99446.91;5785362;22;20201;-78
2021/03/18 18:45:38;;;;;;;7.40;4.10;;;;;;;-0.42;66.13;99398.34;4966613;28;20264;-80
2021/03/18 18:50:05;;;;;;;6.70;5.18;;;;;;;-0.52;66.37;99384.47;5516968;22;20460;-78